Beechmont, Kentucky
Current Conditions -  °F | °C
As of 10:35 AM on Saturday 22 Nov 2014 (Local Time) from K2I0 Reporting Station
Overcast Overcast  
Wind Chill: 61°   Ceiling: 7000
Heat Index: 61°   Visibility: 10mi
Dew Point: 39°   Wind: 14mph
Humidity: 45%   Direction: 210°SSW
Pressure: 30.25"   Gusts: 21mph
Location:  37.17°N, 87.04°W
Report Text: K2I0 221635Z AUTO 21012G18KT 10SM OVC070 16/04 A3025 RMK AO2 T01600041
Loading
Personal Weather Stations






























Interactive Weather Map New forecast layout! Learn more

10-Day Weather Forecast

Advertisements
Track Severe Weather on mobile